createdAt,value
2023-03-20T00:00:27.587Z,0.00
2023-03-20T00:01:27.525Z,0.00
2023-03-20T00:02:27.531Z,0.00
2023-03-20T00:03:27.557Z,0.00
2023-03-20T00:04:27.546Z,0.00
2023-03-20T00:05:27.522Z,0.00
2023-03-20T00:06:27.484Z,0.00
2023-03-20T00:07:27.494Z,0.00
2023-03-20T00:08:29.674Z,0.00
2023-03-20T00:09:27.448Z,0.00
2023-03-20T00:10:27.472Z,0.00
2023-03-20T00:11:27.430Z,0.00
2023-03-20T00:12:27.412Z,0.00
2023-03-20T00:13:27.399Z,0.00
2023-03-20T00:14:27.383Z,0.00
2023-03-20T00:15:27.410Z,0.00
2023-03-20T00:16:27.477Z,0.00
2023-03-20T00:17:27.365Z,0.00
2023-03-20T00:18:27.359Z,0.00
2023-03-20T00:19:27.337Z,0.00
2023-03-20T00:20:28.354Z,0.00
2023-03-20T00:21:27.326Z,0.00
2023-03-20T00:22:27.311Z,0.00
2023-03-20T00:23:27.290Z,0.00
2023-03-20T00:24:27.302Z,0.00
2023-03-20T00:25:27.304Z,0.00
2023-03-20T00:26:27.268Z,0.00
2023-03-20T00:27:27.236Z,0.00
2023-03-20T00:28:27.232Z,0.00
2023-03-20T00:29:27.221Z,0.00
2023-03-20T00:30:27.248Z,0.00
2023-03-20T00:31:27.216Z,0.00
2023-03-20T00:32:27.183Z,0.00
2023-03-20T00:33:27.194Z,0.00
2023-03-20T00:34:27.231Z,0.00
2023-03-20T00:35:27.190Z,0.00
2023-03-20T00:36:27.151Z,0.00
2023-03-20T00:37:27.130Z,0.00
2023-03-20T00:38:27.125Z,0.00
2023-03-20T00:39:27.127Z,0.00
2023-03-20T00:40:27.146Z,0.00
2023-03-20T00:41:27.073Z,0.00
2023-03-20T00:42:27.082Z,0.00
2023-03-20T00:43:27.070Z,0.00
2023-03-20T00:44:27.126Z,0.00
2023-03-20T00:45:27.066Z,0.00
2023-03-20T00:46:27.104Z,0.00
2023-03-20T00:47:27.053Z,0.00
2023-03-20T00:48:27.007Z,0.00
2023-03-20T00:49:27.009Z,0.00
2023-03-20T00:50:27.028Z,0.00
2023-03-20T00:51:26.971Z,0.00
2023-03-20T00:52:26.957Z,0.00
2023-03-20T00:53:26.948Z,0.00
2023-03-20T00:54:26.948Z,0.00
2023-03-20T00:55:26.963Z,0.00
2023-03-20T00:56:26.923Z,0.00
2023-03-20T00:57:26.902Z,0.00
2023-03-20T00:58:26.890Z,0.00
2023-03-20T00:59:26.888Z,0.00
2023-03-20T01:00:26.918Z,0.00
2023-03-20T01:01:26.850Z,0.00
2023-03-20T01:02:27.007Z,0.00
2023-03-20T01:03:26.848Z,0.00
2023-03-20T01:04:26.821Z,0.00
2023-03-20T01:05:26.859Z,0.00
2023-03-20T01:06:26.816Z,0.00
2023-03-20T01:07:26.791Z,0.00
2023-03-20T01:08:26.796Z,0.00
2023-03-20T01:09:26.764Z,0.00
2023-03-20T01:10:26.802Z,0.00
2023-03-20T01:11:26.734Z,0.00
2023-03-20T01:12:26.740Z,0.00
2023-03-20T01:13:26.727Z,0.00
2023-03-20T01:14:26.726Z,0.00
2023-03-20T01:15:26.741Z,0.00
2023-03-20T01:16:26.756Z,0.00
2023-03-20T01:17:26.680Z,0.00
2023-03-20T01:18:26.681Z,0.00
2023-03-20T01:19:26.643Z,0.00
2023-03-20T01:20:26.688Z,0.00
2023-03-20T01:21:26.621Z,0.00
2023-03-20T01:22:26.625Z,0.00
2023-03-20T01:23:26.607Z,0.00
2023-03-20T01:24:26.586Z,0.00
2023-03-20T01:25:26.620Z,0.00
2023-03-20T01:26:26.566Z,0.00
2023-03-20T01:27:26.549Z,0.00
2023-03-20T01:28:26.538Z,0.00
2023-03-20T01:29:26.536Z,0.00
2023-03-20T01:30:26.606Z,0.00
2023-03-20T01:31:26.530Z,0.00
2023-03-20T01:32:26.507Z,0.00
2023-03-20T01:33:26.510Z,0.00
2023-03-20T01:34:26.479Z,0.00
2023-03-20T01:35:26.494Z,0.00
2023-03-20T01:36:26.442Z,0.00
2023-03-20T01:37:26.445Z,0.00
2023-03-20T01:38:26.426Z,0.00
2023-03-20T01:39:26.443Z,0.00
2023-03-20T01:40:26.421Z,0.00
2023-03-20T01:41:26.462Z,0.00
2023-03-20T01:42:26.398Z,0.00
2023-03-20T01:43:26.377Z,0.00
2023-03-20T01:44:26.379Z,0.00
2023-03-20T01:45:26.364Z,0.00
2023-03-20T01:46:26.474Z,0.00
2023-03-20T01:47:26.333Z,0.00
2023-03-20T01:48:26.339Z,0.00
2023-03-20T01:49:26.310Z,0.00
2023-03-20T01:50:26.341Z,0.00
2023-03-20T01:51:26.323Z,0.00
2023-03-20T01:52:26.293Z,0.00
2023-03-20T01:53:26.270Z,0.00
2023-03-20T01:54:26.261Z,0.00
2023-03-20T01:55:26.271Z,0.00
2023-03-20T01:56:26.277Z,0.00
2023-03-20T01:57:26.225Z,0.00
2023-03-20T01:58:26.203Z,0.00
2023-03-20T01:59:26.193Z,0.00
2023-03-20T02:00:26.205Z,0.00
2023-03-20T02:01:26.242Z,0.00
2023-03-20T02:02:26.162Z,0.00
2023-03-20T02:03:26.162Z,0.00
2023-03-20T02:04:26.201Z,0.00
2023-03-20T02:05:26.150Z,0.00
2023-03-20T02:06:26.181Z,0.00
2023-03-20T02:07:26.117Z,0.00
2023-03-20T02:08:26.104Z,0.00
2023-03-20T02:09:26.083Z,0.00
2023-03-20T02:10:26.092Z,0.00
2023-03-20T02:11:26.100Z,0.00
2023-03-20T02:12:26.062Z,0.00
2023-03-20T02:13:26.037Z,0.00
2023-03-20T02:14:26.028Z,0.00
2023-03-20T02:15:26.031Z,0.00
2023-03-20T02:16:26.065Z,0.00
2023-03-20T02:17:26.018Z,0.00
2023-03-20T02:18:26.001Z,0.00
2023-03-20T02:19:25.976Z,0.00
2023-03-20T02:20:25.975Z,0.00
2023-03-20T02:21:26.005Z,0.00
2023-03-20T02:22:25.933Z,0.00
2023-03-20T02:23:25.927Z,0.00
2023-03-20T02:24:25.930Z,0.00
2023-03-20T02:25:25.918Z,0.00
2023-03-20T02:26:25.936Z,0.00
2023-03-20T02:27:25.885Z,0.00
2023-03-20T02:28:25.884Z,0.00
2023-03-20T02:29:25.837Z,0.00
2023-03-20T02:30:25.854Z,0.00
2023-03-20T02:31:25.856Z,0.00
2023-03-20T02:32:25.814Z,0.00
2023-03-20T02:33:25.794Z,0.00
2023-03-20T02:34:25.788Z,0.00
2023-03-20T02:35:25.801Z,0.00
2023-03-20T02:36:25.816Z,0.00
2023-03-20T02:37:25.760Z,0.00
2023-03-20T02:38:25.756Z,0.00
2023-03-20T02:39:25.744Z,0.00
2023-03-20T02:40:25.728Z,0.00
2023-03-20T02:41:25.780Z,0.00
2023-03-20T02:42:25.726Z,0.00
2023-03-20T02:43:25.714Z,0.00
2023-03-20T02:44:25.689Z,0.00
2023-03-20T02:45:25.694Z,0.00
2023-03-20T02:46:25.717Z,0.00
2023-03-20T02:47:25.649Z,0.00
2023-03-20T02:48:25.655Z,0.00
2023-03-20T02:49:25.626Z,0.00
2023-03-20T02:50:25.641Z,0.00
2023-03-20T02:51:25.659Z,0.00
2023-03-20T02:52:25.605Z,0.00
2023-03-20T02:53:25.586Z,0.00
2023-03-20T02:54:25.591Z,0.00
2023-03-20T02:55:25.567Z,0.00
2023-03-20T02:56:25.596Z,0.00
2023-03-20T02:57:25.552Z,0.00
2023-03-20T02:58:25.551Z,0.00
2023-03-20T02:59:25.514Z,0.00
2023-03-20T03:00:25.505Z,0.00
2023-03-20T03:01:25.552Z,0.00
2023-03-20T03:02:25.512Z,0.00
2023-03-20T03:03:25.491Z,0.00
2023-03-20T03:04:25.465Z,0.00
2023-03-20T03:05:25.449Z,0.00
2023-03-20T03:06:25.485Z,0.00
2023-03-20T03:07:25.435Z,0.00
2023-03-20T03:08:25.415Z,0.00
2023-03-20T03:09:25.429Z,0.00
2023-03-20T03:10:25.385Z,0.00
2023-03-20T03:11:25.435Z,0.00
2023-03-20T03:12:25.374Z,0.00
2023-03-20T03:13:25.365Z,0.00
2023-03-20T03:14:25.346Z,0.00
2023-03-20T03:15:25.354Z,0.00
2023-03-20T03:16:25.455Z,0.00
2023-03-20T03:17:25.311Z,0.00
2023-03-20T03:18:25.312Z,0.00
2023-03-20T03:19:25.304Z,0.00
2023-03-20T03:20:25.284Z,0.00
2023-03-20T03:21:25.315Z,0.00
2023-03-20T03:22:25.274Z,0.00
2023-03-20T03:23:25.249Z,0.00
2023-03-20T03:24:39.364Z,0.00
2023-03-20T03:25:26.243Z,0.00
2023-03-20T03:26:25.261Z,0.00
2023-03-20T03:27:25.211Z,0.00
2023-03-20T03:28:25.207Z,0.00
2023-03-20T03:29:25.180Z,0.00
2023-03-20T03:30:25.168Z,0.00
2023-03-20T03:31:25.219Z,0.00
2023-03-20T03:32:25.158Z,0.00
2023-03-20T03:33:25.149Z,0.00
2023-03-20T03:34:25.126Z,0.00
2023-03-20T03:35:25.161Z,0.00
2023-03-20T03:36:25.097Z,0.00
2023-03-20T03:37:25.083Z,0.00
2023-03-20T03:38:25.080Z,0.00
2023-03-20T03:39:25.080Z,0.00
2023-03-20T03:40:25.115Z,0.00
2023-03-20T03:41:25.065Z,0.00
2023-03-20T03:42:25.049Z,0.00
2023-03-20T03:43:25.039Z,0.00
2023-03-20T03:44:25.008Z,0.00
2023-03-20T03:45:25.048Z,0.00
2023-03-20T03:46:25.045Z,0.00
2023-03-20T03:47:24.980Z,0.00
2023-03-20T03:48:24.960Z,0.00
2023-03-20T03:49:25.015Z,0.00
2023-03-20T03:50:25.010Z,0.00
2023-03-20T03:51:24.970Z,0.00
2023-03-20T03:52:24.957Z,0.00
2023-03-20T03:53:24.948Z,0.00
2023-03-20T03:54:24.897Z,0.00
2023-03-20T03:55:24.944Z,0.00
2023-03-20T03:56:24.934Z,0.00
2023-03-20T03:57:24.877Z,0.00
2023-03-20T03:58:24.856Z,0.00
2023-03-20T03:59:24.858Z,0.00
2023-03-20T04:00:24.872Z,0.00
2023-03-20T04:01:24.826Z,0.00
2023-03-20T04:02:24.822Z,0.00
2023-03-20T04:03:24.832Z,0.00
2023-03-20T04:04:24.854Z,0.00
2023-03-20T04:05:24.833Z,0.00
2023-03-20T04:06:24.767Z,0.00
2023-03-20T04:07:24.764Z,0.00
2023-03-20T04:08:24.775Z,0.00
2023-03-20T04:09:24.734Z,0.00
2023-03-20T04:10:24.749Z,0.00
2023-03-20T04:11:24.744Z,0.00
2023-03-20T04:12:24.712Z,0.00
2023-03-20T04:13:24.699Z,0.00
2023-03-20T04:14:24.702Z,0.00
2023-03-20T04:15:24.711Z,0.00
2023-03-20T04:16:24.787Z,0.00
2023-03-20T04:17:24.648Z,0.00
2023-03-20T04:18:24.660Z,0.00
2023-03-20T04:19:24.635Z,0.00
2023-03-20T04:20:24.657Z,0.00
2023-03-20T04:21:24.603Z,0.00
2023-03-20T04:22:24.579Z,0.00
2023-03-20T04:23:24.598Z,0.00
2023-03-20T04:24:24.576Z,0.00
2023-03-20T04:25:24.595Z,0.00
2023-03-20T04:26:24.545Z,0.00
2023-03-20T04:27:24.550Z,0.00
2023-03-20T04:28:24.521Z,0.00
2023-03-20T04:29:24.523Z,0.00
2023-03-20T04:30:24.532Z,0.00
2023-03-20T04:31:24.537Z,0.00
2023-03-20T04:32:24.472Z,0.00
2023-03-20T04:33:24.486Z,0.00
2023-03-20T04:34:24.468Z,0.00
2023-03-20T04:35:24.514Z,0.00
2023-03-20T04:36:24.441Z,4.00
2023-03-20T04:37:24.439Z,4.00
2023-03-20T04:38:24.413Z,4.00
2023-03-20T04:39:24.401Z,4.00
2023-03-20T04:40:24.416Z,4.00
2023-03-20T04:41:24.379Z,4.00
2023-03-20T04:42:24.357Z,8.00
2023-03-20T04:43:24.366Z,8.00
2023-03-20T04:44:24.345Z,8.00
2023-03-20T04:45:24.390Z,12.00
2023-03-20T04:46:24.392Z,16.00
2023-03-20T04:47:24.309Z,16.00
2023-03-20T04:48:24.314Z,20.00
2023-03-20T04:49:24.286Z,20.00
2023-03-20T04:50:24.302Z,24.00
2023-03-20T04:51:24.268Z,24.00
2023-03-20T04:52:24.270Z,28.00
2023-03-20T04:53:27.026Z,32.00
2023-03-20T04:54:24.235Z,32.00
2023-03-20T04:55:24.270Z,40.00
2023-03-20T04:56:24.212Z,48.00
2023-03-20T04:57:24.211Z,56.00
2023-03-20T04:58:24.182Z,68.00
2023-03-20T04:59:24.176Z,72.00
2023-03-20T05:00:24.195Z,88.00
2023-03-20T05:01:24.203Z,100.00
2023-03-20T05:02:24.128Z,116.00
2023-03-20T05:03:24.358Z,136.00
2023-03-20T05:04:24.210Z,152.00
2023-03-20T05:05:24.161Z,176.00
2023-03-20T05:06:24.095Z,196.00
2023-03-20T05:07:24.102Z,224.00
2023-03-20T05:08:24.079Z,248.00
2023-03-20T05:09:24.068Z,280.00
2023-03-20T05:10:24.079Z,308.00
2023-03-20T05:11:24.042Z,336.00
2023-03-20T05:12:24.018Z,356.00
2023-03-20T05:13:24.010Z,372.00
2023-03-20T05:14:23.983Z,384.00
2023-03-20T05:15:24.010Z,404.00
2023-03-20T05:16:23.999Z,420.00
2023-03-20T05:17:23.965Z,448.00
2023-03-20T05:18:23.942Z,484.00
2023-03-20T05:19:24.300Z,520.00
2023-03-20T05:20:23.974Z,552.00
2023-03-20T05:21:23.962Z,584.00
2023-03-20T05:22:23.911Z,620.00
2023-03-20T05:23:23.900Z,660.00
2023-03-20T05:24:23.877Z,712.00
2023-03-20T05:25:23.930Z,768.00
2023-03-20T05:26:23.868Z,832.00
2023-03-20T05:27:23.874Z,900.00
2023-03-20T05:28:23.837Z,964.00
2023-03-20T05:29:23.860Z,1028.00
2023-03-20T05:30:23.853Z,1080.00
2023-03-20T05:31:23.855Z,1128.00
2023-03-20T05:32:23.811Z,1168.00
2023-03-20T05:33:23.803Z,1208.00
2023-03-20T05:34:23.789Z,1252.00
2023-03-20T05:35:23.827Z,1300.00
2023-03-20T05:36:23.767Z,1376.00
2023-03-20T05:37:23.744Z,1456.00
2023-03-20T05:38:23.727Z,1552.00
2023-03-20T05:39:23.733Z,1652.00
2023-03-20T05:40:23.754Z,1772.00
2023-03-20T05:41:23.704Z,1876.00
2023-03-20T05:42:23.685Z,1960.00
2023-03-20T05:43:23.710Z,2028.00
2023-03-20T05:44:23.673Z,2092.00
2023-03-20T05:45:23.675Z,2156.00
2023-03-20T05:46:23.658Z,2232.00
2023-03-20T05:47:26.028Z,2316.00
2023-03-20T05:48:23.634Z,2408.00
2023-03-20T05:49:23.630Z,2496.00
2023-03-20T05:50:23.632Z,2588.00
2023-03-20T05:51:23.617Z,2692.00
2023-03-20T05:52:23.609Z,2788.00
2023-03-20T05:53:23.570Z,2892.00
2023-03-20T05:54:23.574Z,2984.00
2023-03-20T05:55:23.586Z,3084.00
2023-03-20T05:56:23.535Z,3204.00
2023-03-20T05:57:23.533Z,3348.00
2023-03-20T05:58:23.516Z,3512.00
2023-03-20T05:59:23.513Z,3696.00
2023-03-20T06:00:23.549Z,3884.00
2023-03-20T06:01:23.502Z,4040.00
2023-03-20T06:02:23.491Z,4168.00
2023-03-20T06:03:23.515Z,4284.00
2023-03-20T06:04:23.454Z,4380.00
2023-03-20T06:05:23.490Z,4472.00
2023-03-20T06:06:23.456Z,4588.00
2023-03-20T06:07:23.452Z,4728.00
2023-03-20T06:08:23.437Z,4852.00
2023-03-20T06:09:23.407Z,4920.00
2023-03-20T06:10:23.413Z,4936.00
2023-03-20T06:11:23.376Z,4988.00
2023-03-20T06:12:23.356Z,5040.00
2023-03-20T06:13:23.357Z,5080.00
2023-03-20T06:14:23.352Z,5108.00
2023-03-20T06:15:23.356Z,5160.00
2023-03-20T06:16:23.344Z,5216.00
2023-03-20T06:17:23.296Z,5272.00
2023-03-20T06:18:23.268Z,5332.00
2023-03-20T06:19:23.361Z,5352.00
2023-03-20T06:20:23.307Z,5384.00
2023-03-20T06:21:23.259Z,5484.00
2023-03-20T06:22:23.218Z,5600.00
2023-03-20T06:23:23.216Z,5728.00
2023-03-20T06:24:23.213Z,5800.00
2023-03-20T06:25:23.254Z,5844.00
2023-03-20T06:26:23.204Z,5872.00
2023-03-20T06:27:23.175Z,5928.00
2023-03-20T06:28:23.201Z,6004.00
2023-03-20T06:29:23.185Z,6060.00
2023-03-20T06:30:23.211Z,6084.00
2023-03-20T06:31:23.182Z,6076.00
2023-03-20T06:32:23.128Z,6076.00
2023-03-20T06:33:23.112Z,6112.00
2023-03-20T06:34:23.116Z,6116.00
2023-03-20T06:35:23.259Z,6132.00
2023-03-20T06:36:23.102Z,6128.00
2023-03-20T06:37:23.082Z,6108.00
2023-03-20T06:38:23.072Z,6116.00
2023-03-20T06:39:23.063Z,6096.00
2023-03-20T06:40:23.091Z,5944.00
2023-03-20T06:41:33.832Z,5916.00
2023-03-20T06:42:24.017Z,6008.00
2023-03-20T06:43:23.026Z,6220.00
2023-03-20T06:44:23.011Z,6516.00
2023-03-20T06:45:22.975Z,6944.00
2023-03-20T06:46:23.013Z,7384.00
2023-03-20T06:47:22.938Z,7776.00
2023-03-20T06:48:22.958Z,8064.00
2023-03-20T06:49:23.002Z,8260.00
2023-03-20T06:50:22.954Z,8292.00
2023-03-20T06:51:22.923Z,8184.00
2023-03-20T06:52:22.897Z,8096.00
2023-03-20T06:53:22.950Z,7992.00
2023-03-20T06:54:22.942Z,8024.00
2023-03-20T06:55:22.898Z,8108.00
2023-03-20T06:56:22.867Z,8324.00
2023-03-20T06:57:22.876Z,8548.00
2023-03-20T06:58:22.827Z,8804.00
2023-03-20T06:59:22.847Z,9092.00
2023-03-20T07:00:22.880Z,9256.00
2023-03-20T07:01:22.844Z,9336.00
2023-03-20T07:02:22.789Z,9444.00
2023-03-20T07:03:22.790Z,9628.00
2023-03-20T07:04:22.769Z,9760.00
2023-03-20T07:05:22.871Z,9796.00
2023-03-20T07:06:22.764Z,9708.00
2023-03-20T07:07:22.742Z,9600.00
2023-03-20T07:08:22.764Z,9512.00
2023-03-20T07:09:22.754Z,9608.00
2023-03-20T07:10:22.758Z,9856.00
2023-03-20T07:11:22.719Z,10076.00
2023-03-20T07:12:22.685Z,10092.00
2023-03-20T07:13:22.681Z,9876.00
2023-03-20T07:14:22.684Z,9560.00
2023-03-20T07:15:22.626Z,9388.00
2023-03-20T07:16:22.682Z,9644.00
2023-03-20T07:17:22.646Z,10212.00
2023-03-20T07:18:22.629Z,10652.00
2023-03-20T07:19:22.667Z,10916.00
2023-03-20T07:20:22.623Z,11124.00
2023-03-20T07:21:22.582Z,11384.00
2023-03-20T07:22:22.587Z,11684.00
2023-03-20T07:23:22.582Z,11872.00
2023-03-20T07:24:22.623Z,11988.00
2023-03-20T07:25:35.461Z,12092.00
2023-03-20T07:26:23.527Z,12220.00
2023-03-20T07:27:22.528Z,12432.00
2023-03-20T07:28:22.497Z,12840.00
2023-03-20T07:29:22.524Z,13396.00
2023-03-20T07:30:22.607Z,13968.00
2023-03-20T07:31:22.626Z,14468.00
2023-03-20T07:32:22.468Z,14476.00
2023-03-20T07:33:22.463Z,14076.00
2023-03-20T07:34:22.489Z,13532.00
2023-03-20T07:35:22.464Z,13024.00
2023-03-20T07:36:22.415Z,12612.00
2023-03-20T07:37:22.394Z,12228.00
2023-03-20T07:38:22.417Z,12092.00
2023-03-20T07:39:22.400Z,12196.00
2023-03-20T07:40:22.369Z,12568.00
2023-03-20T07:41:22.410Z,12900.00
2023-03-20T07:42:22.346Z,13140.00
2023-03-20T07:43:22.350Z,13276.00
2023-03-20T07:44:22.305Z,13300.00
2023-03-20T07:45:22.340Z,13268.00
2023-03-20T07:46:22.386Z,13136.00
2023-03-20T07:47:22.276Z,12860.00
2023-03-20T07:48:22.325Z,12488.00
2023-03-20T07:49:22.260Z,12124.00
2023-03-20T07:50:22.235Z,11772.00
2023-03-20T07:51:22.246Z,11472.00
2023-03-20T07:52:22.233Z,11276.00
2023-03-20T07:53:22.243Z,11236.00
2023-03-20T07:54:22.215Z,11348.00
2023-03-20T07:55:22.187Z,11680.00
2023-03-20T07:56:22.178Z,12160.00
2023-03-20T07:57:22.167Z,12760.00
2023-03-20T07:58:22.217Z,13544.00
2023-03-20T07:59:22.131Z,13644.00
2023-03-20T08:00:22.122Z,13712.00
2023-03-20T08:01:22.112Z,13544.00
2023-03-20T08:02:22.121Z,13228.00
2023-03-20T08:03:22.235Z,12800.00
2023-03-20T08:04:22.198Z,12328.00
2023-03-20T08:05:23.123Z,11756.00
2023-03-20T08:06:22.062Z,11264.00
2023-03-20T08:07:22.060Z,11152.00
2023-03-20T08:08:22.036Z,11548.00
2023-03-20T08:09:22.085Z,11692.00
2023-03-20T08:10:22.030Z,11788.00
2023-03-20T08:11:22.015Z,11884.00
2023-03-20T08:12:22.027Z,12012.00
2023-03-20T08:13:21.970Z,12080.00
2023-03-20T08:14:22.022Z,12076.00
2023-03-20T08:15:21.942Z,12108.00
2023-03-20T08:16:21.991Z,12340.00
2023-03-20T08:17:22.178Z,12820.00
2023-03-20T08:18:22.101Z,13584.00
2023-03-20T08:19:21.971Z,14584.00
2023-03-20T08:20:21.937Z,15696.00
2023-03-20T08:21:21.884Z,16704.00
2023-03-20T08:22:21.888Z,17536.00
2023-03-20T08:23:21.902Z,18048.00
2023-03-20T08:24:21.965Z,18496.00
2023-03-20T08:25:21.877Z,18816.00
2023-03-20T08:26:21.849Z,19040.00
2023-03-20T08:27:21.879Z,19264.00
2023-03-20T08:28:21.821Z,19200.00
2023-03-20T08:29:21.854Z,18656.00
2023-03-20T08:30:21.865Z,18112.00
2023-03-20T08:31:21.788Z,17920.00
2023-03-20T08:32:21.784Z,17536.00
2023-03-20T08:33:21.769Z,16072.00
2023-03-20T08:34:24.060Z,14020.00
2023-03-20T08:35:32.474Z,12316.00
2023-03-20T08:36:22.780Z,11252.00
2023-03-20T08:37:21.733Z,11248.00
2023-03-20T08:38:21.805Z,12348.00
2023-03-20T08:39:21.751Z,14060.00
2023-03-20T08:40:21.683Z,15732.00
2023-03-20T08:41:21.689Z,17316.00
2023-03-20T08:42:21.651Z,18912.00
2023-03-20T08:43:21.697Z,20160.00
2023-03-20T08:44:21.627Z,21280.00
2023-03-20T08:45:21.752Z,21600.00
2023-03-20T08:46:21.699Z,20992.00
2023-03-20T08:47:21.599Z,19584.00
2023-03-20T08:48:21.659Z,18592.00
2023-03-20T08:49:21.596Z,18016.00
2023-03-20T08:50:21.563Z,17124.00
2023-03-20T08:51:21.558Z,16616.00
2023-03-20T08:52:21.548Z,17284.00
2023-03-20T08:53:22.270Z,19008.00
2023-03-20T08:54:21.567Z,20352.00
2023-03-20T08:55:21.538Z,20896.00
2023-03-20T08:56:21.492Z,20224.00
2023-03-20T08:57:21.486Z,18272.00
2023-03-20T08:58:21.522Z,15400.00
2023-03-20T08:59:21.459Z,13820.00
2023-03-20T09:00:21.466Z,14992.00
2023-03-20T09:01:21.462Z,16284.00
2023-03-20T09:02:21.546Z,16184.00
2023-03-20T09:03:21.506Z,14156.00
2023-03-20T09:04:21.432Z,12632.00
2023-03-20T09:05:21.379Z,14004.00
2023-03-20T09:06:21.423Z,14500.00
2023-03-20T09:07:21.374Z,12880.00
2023-03-20T09:08:21.402Z,12124.00
2023-03-20T09:09:21.366Z,11608.00
2023-03-20T09:10:21.341Z,12492.00
2023-03-20T09:11:21.335Z,13236.00
2023-03-20T09:12:21.346Z,12336.00
2023-03-20T09:13:27.204Z,9868.00
2023-03-20T09:14:22.282Z,8876.00
2023-03-20T09:15:21.289Z,7996.00
2023-03-20T09:16:21.334Z,6656.00
2023-03-20T09:17:21.311Z,5924.00
2023-03-20T09:18:21.312Z,6692.00
2023-03-20T09:19:21.273Z,7136.00
2023-03-20T09:20:21.239Z,7432.00
2023-03-20T09:21:21.218Z,6964.00
2023-03-20T09:22:21.219Z,5788.00
2023-03-20T09:23:21.249Z,4844.00
2023-03-20T09:24:21.199Z,4160.00
2023-03-20T09:25:21.163Z,4068.00
2023-03-20T09:26:21.181Z,4308.00
2023-03-20T09:27:21.189Z,4256.00
2023-03-20T09:28:21.186Z,4876.00
2023-03-20T09:29:21.124Z,5576.00
2023-03-20T09:30:21.118Z,5728.00
2023-03-20T09:31:21.136Z,5360.00
2023-03-20T09:32:21.146Z,4424.00
2023-03-20T09:33:21.097Z,3068.00
2023-03-20T09:34:21.092Z,2516.00
2023-03-20T09:35:21.056Z,2296.00
2023-03-20T09:36:21.066Z,2372.00
2023-03-20T09:37:21.077Z,3228.00
2023-03-20T09:38:21.030Z,4672.00
2023-03-20T09:39:21.020Z,4776.00
2023-03-20T09:40:21.047Z,4524.00
2023-03-20T09:41:20.980Z,4776.00
2023-03-20T09:42:21.011Z,5388.00
2023-03-20T09:43:20.935Z,6292.00
2023-03-20T09:44:20.966Z,7012.00
2023-03-20T09:45:20.957Z,7440.00
2023-03-20T09:46:20.977Z,7832.00
2023-03-20T09:47:21.480Z,8300.00
2023-03-20T09:48:20.939Z,8808.00
2023-03-20T09:49:20.956Z,9408.00
2023-03-20T09:50:20.910Z,10276.00
2023-03-20T09:51:20.885Z,11308.00
2023-03-20T09:52:20.972Z,12096.00
2023-03-20T09:53:20.895Z,12532.00
2023-03-20T09:54:20.830Z,12568.00
2023-03-20T09:55:20.854Z,12332.00
2023-03-20T09:56:20.826Z,11944.00
2023-03-20T09:57:20.790Z,11496.00
2023-03-20T09:58:20.827Z,11212.00
2023-03-20T09:59:20.783Z,11080.00
2023-03-20T10:00:20.783Z,11344.00
2023-03-20T10:01:20.815Z,11424.00
2023-03-20T10:02:20.725Z,11676.00
2023-03-20T10:03:20.787Z,11472.00
2023-03-20T10:04:20.827Z,11360.00
2023-03-20T10:05:20.742Z,11348.00
2023-03-20T10:06:20.691Z,11584.00
2023-03-20T10:07:20.705Z,12024.00
2023-03-20T10:08:20.739Z,11788.00
2023-03-20T10:09:20.666Z,12044.00
2023-03-20T10:10:20.790Z,11704.00
2023-03-20T10:11:20.618Z,13016.00
2023-03-20T10:12:20.616Z,13960.00
2023-03-20T10:13:20.695Z,14340.00
2023-03-20T10:14:20.615Z,15104.00
2023-03-20T10:15:20.591Z,16080.00
2023-03-20T10:16:20.632Z,16172.00
2023-03-20T10:17:20.617Z,18240.00
2023-03-20T10:18:20.614Z,19136.00
2023-03-20T10:19:20.553Z,18880.00
2023-03-20T10:20:20.551Z,19392.00
2023-03-20T10:21:20.555Z,16960.00
2023-03-20T10:22:20.522Z,14988.00
2023-03-20T10:23:20.521Z,14840.00
2023-03-20T10:24:20.503Z,14280.00
2023-03-20T10:25:20.481Z,13136.00
2023-03-20T10:26:20.483Z,13016.00
2023-03-20T10:27:20.484Z,12716.00
2023-03-20T10:28:20.495Z,11100.00
2023-03-20T10:29:20.432Z,10412.00
2023-03-20T10:30:20.479Z,10364.00
2023-03-20T10:31:20.453Z,12240.00
2023-03-20T10:32:20.429Z,14988.00
2023-03-20T10:33:20.439Z,14260.00
2023-03-20T10:34:20.384Z,13296.00
2023-03-20T10:35:20.461Z,12172.00
2023-03-20T10:36:20.365Z,11616.00
2023-03-20T10:37:20.386Z,12472.00
2023-03-20T10:38:20.393Z,13644.00
2023-03-20T10:39:20.336Z,13712.00
2023-03-20T10:40:20.459Z,15028.00
2023-03-20T10:41:20.286Z,15484.00
2023-03-20T10:42:20.299Z,14744.00
2023-03-20T10:43:20.344Z,11704.00
2023-03-20T10:44:20.278Z,12452.00
2023-03-20T10:45:20.266Z,11800.00
2023-03-20T10:46:20.321Z,9680.00
2023-03-20T10:47:20.267Z,9232.00
2023-03-20T10:48:20.209Z,8056.00
2023-03-20T10:49:20.228Z,7848.00
2023-03-20T10:50:20.188Z,7480.00
2023-03-20T10:51:20.223Z,7148.00
2023-03-20T10:52:20.173Z,6860.00
2023-03-20T10:53:20.181Z,6832.00
2023-03-20T10:54:20.197Z,6796.00
2023-03-20T10:55:20.134Z,6440.00
2023-03-20T10:56:20.153Z,6076.00
2023-03-20T10:57:20.117Z,6848.00
2023-03-20T10:58:20.123Z,7100.00
2023-03-20T10:59:20.137Z,6472.00
2023-03-20T11:00:20.095Z,5960.00
2023-03-20T11:01:20.136Z,5768.00
2023-03-20T11:02:20.114Z,5616.00
2023-03-20T11:03:20.068Z,5556.00
2023-03-20T11:04:20.157Z,5432.00
2023-03-20T11:05:20.029Z,5728.00
2023-03-20T11:06:20.044Z,6064.00
2023-03-20T11:07:20.015Z,5336.00
2023-03-20T11:08:19.981Z,4860.00
2023-03-20T11:09:20.020Z,5300.00
2023-03-20T11:10:19.985Z,4652.00
2023-03-20T11:11:19.969Z,5016.00
2023-03-20T11:12:19.942Z,5096.00
2023-03-20T11:13:19.949Z,4876.00
2023-03-20T11:14:19.970Z,4492.00
2023-03-20T11:15:19.952Z,4552.00
2023-03-20T11:16:19.981Z,4248.00
2023-03-20T11:17:19.908Z,4104.00
2023-03-20T11:18:19.883Z,4812.00
2023-03-20T11:19:19.904Z,4856.00
2023-03-20T11:20:19.884Z,5188.00
2023-03-20T11:21:19.840Z,5036.00
2023-03-20T11:22:19.867Z,5396.00
2023-03-20T11:23:19.821Z,5520.00
2023-03-20T11:24:19.872Z,5676.00
2023-03-20T11:25:19.829Z,5448.00
2023-03-20T11:26:19.793Z,5396.00
2023-03-20T11:27:19.789Z,5896.00
2023-03-20T11:28:19.758Z,6340.00
2023-03-20T11:29:19.798Z,6652.00
2023-03-20T11:30:19.775Z,6856.00
2023-03-20T11:31:19.730Z,6816.00
2023-03-20T11:32:19.727Z,6740.00
2023-03-20T11:33:19.719Z,6588.00
2023-03-20T11:34:19.752Z,7232.00
2023-03-20T11:35:19.701Z,7304.00
2023-03-20T11:36:19.669Z,7772.00
2023-03-20T11:37:19.674Z,7804.00
2023-03-20T11:38:19.629Z,7520.00
2023-03-20T11:39:19.690Z,7864.00
2023-03-20T11:40:19.630Z,7956.00
2023-03-20T11:41:19.631Z,7676.00
2023-03-20T11:42:19.613Z,8048.00
2023-03-20T11:43:19.582Z,8164.00
2023-03-20T11:44:19.630Z,8136.00
2023-03-20T11:45:19.584Z,7580.00
2023-03-20T11:46:19.640Z,8032.00
2023-03-20T11:47:19.554Z,8684.00
2023-03-20T11:48:19.549Z,8800.00
2023-03-20T11:49:19.594Z,8564.00
2023-03-20T11:50:19.508Z,9208.00
2023-03-20T11:51:19.518Z,8836.00
2023-03-20T11:52:19.484Z,8380.00
2023-03-20T11:53:19.489Z,7356.00
2023-03-20T11:54:19.512Z,6768.00
2023-03-20T11:55:19.471Z,6716.00
2023-03-20T11:56:19.443Z,6872.00
2023-03-20T11:57:19.436Z,6900.00
2023-03-20T11:58:19.437Z,7688.00
2023-03-20T11:59:19.458Z,7360.00
2023-03-20T12:00:19.420Z,7624.00
2023-03-20T12:01:19.393Z,8288.00
2023-03-20T12:02:19.422Z,8536.00
2023-03-20T12:03:19.400Z,8948.00
2023-03-20T12:04:19.384Z,9352.00
2023-03-20T12:05:19.344Z,9484.00
2023-03-20T12:06:19.334Z,8400.00
2023-03-20T12:07:19.324Z,7488.00
2023-03-20T12:08:19.332Z,8140.00
2023-03-20T12:09:19.307Z,8916.00
2023-03-20T12:10:19.277Z,8968.00
2023-03-20T12:11:19.291Z,7580.00
2023-03-20T12:12:19.685Z,6992.00
2023-03-20T12:13:19.265Z,7772.00
2023-03-20T12:14:19.290Z,7608.00
2023-03-20T12:15:19.240Z,7772.00
2023-03-20T12:16:19.303Z,11584.00
2023-03-20T12:17:19.216Z,13296.00
2023-03-20T12:18:19.199Z,15648.00
2023-03-20T12:19:19.200Z,15844.00
2023-03-20T12:20:19.244Z,13956.00
2023-03-20T12:21:19.158Z,16824.00
2023-03-20T12:22:19.178Z,14044.00
2023-03-20T12:23:19.132Z,8212.00
2023-03-20T12:24:19.126Z,7792.00
2023-03-20T12:25:19.160Z,9700.00
2023-03-20T12:26:19.098Z,11780.00
2023-03-20T12:27:19.105Z,13076.00